Portada
METAR-TAF:

METAR-TAF

Aeroports :

Aeroport Internacional de Singapur-Changi

Singapur, Singapur

latitud: 01-22N, longitud: 103-59E, altitud: 5 m

Observació

L'informe es va fer fa 26 minuts, a les 08:00 UTC
Vent 3 kt del Sud, variant entre Est i Oest/Sud-Oest
Temperatura 31°C
Humitat 66%
Pressió 1006 hPa
Visibilitat 10 km o més
Escasses núvols a una alçada de 1800 ft
Escasses núvols a una alçada de 2000 ft, Cumulonimbus.
Cel ennuvolat a una alçada de 30000 ft

METAR: WSSS 230800Z 18003KT 100V250 9999 FEW018 FEW020CB BKN300 31/24 Q1006 NOSIG

Hora: 16:26 (08:26 UTC)

Pronòstic

L'informe es va fer fa 26 minuts, a les 08:00 UTC
Pronòstic vàlid del 23 a les 08 UTC al 24 a les 12 UTC
Vent 7 kt del Sud-Est
Visibilitat 10 km o més
Escasses núvols a una alçada de 1500 ft
Núvols disperses a una alçada de 2000 ft

TAF: WSSS 230800Z 2308/2412 14007KT 9999 FEW015 SCT020

Observacions i pronòstics meteorològics de més de 4000 aeroports (METAR i TAF).

Les estacions disponibles són els punts grocs i vermells al mapa.

Posi el ratolí al punt desitjat per veure el nom de l'estació.

Feu clic per veure les observacions i els pronòstics meteorològics.

Per canviar el mapa: feu clic els botons verds amb una creu de color negre per apropar; al botó verd amb un guió per allunyar la imatge; o en les fletxes verdes per a mapes adjacents.


METAR-TAF: